sensor_id;sensor_type;location;lat;lon;timestamp;P1;durP1;ratioP1;P2;durP2;ratioP2
16099;SDS011;8154;50.830;12.082;2023-01-25T01:49:15;2.80;;;2.60;;
16099;SDS011;8154;50.830;12.082;2023-01-25T01:57:02;2.92;;;2.72;;
16099;SDS011;8154;50.830;12.082;2023-01-25T01:59:38;3.05;;;2.85;;
16099;SDS011;8154;50.830;12.082;2023-01-25T02:02:12;2.80;;;2.60;;
16099;SDS011;8154;50.830;12.082;2023-01-25T02:04:39;2.80;;;2.60;;
16099;SDS011;8154;50.830;12.082;2023-01-25T02:09:41;2.97;;;2.78;;
16099;SDS011;8154;50.830;12.082;2023-01-25T02:12:09;2.72;;;2.53;;
16099;SDS011;8154;50.830;12.082;2023-01-25T02:14:38;2.70;;;2.50;;
16099;SDS011;8154;50.830;12.082;2023-01-25T02:17:12;2.80;;;2.60;;
16099;SDS011;8154;50.830;12.082;2023-01-25T02:22:33;2.80;;;2.60;;
16099;SDS011;8154;50.830;12.082;2023-01-25T02:25:18;2.78;;;2.58;;
16099;SDS011;8154;50.830;12.082;2023-01-25T02:27:46;2.80;;;2.60;;
16099;SDS011;8154;50.830;12.082;2023-01-25T02:30:17;2.80;;;2.60;;
16099;SDS011;8154;50.830;12.082;2023-01-25T02:32:43;2.90;;;2.70;;
16099;SDS011;8154;50.830;12.082;2023-01-25T02:35:20;2.80;;;2.60;;
16099;SDS011;8154;50.830;12.082;2023-01-25T02:37:48;2.50;;;2.30;;
16099;SDS011;8154;50.830;12.082;2023-01-25T02:40:16;2.80;;;2.60;;
16099;SDS011;8154;50.830;12.082;2023-01-25T02:42:43;2.67;;;2.47;;
16099;SDS011;8154;50.830;12.082;2023-01-25T02:45:15;2.85;;;2.65;;
16099;SDS011;8154;50.830;12.082;2023-01-25T02:47:44;2.70;;;2.50;;
16099;SDS011;8154;50.830;12.082;2023-01-25T02:50:10;2.90;;;2.70;;
16099;SDS011;8154;50.830;12.082;2023-01-25T02:52:36;2.75;;;2.55;;
16099;SDS011;8154;50.830;12.082;2023-01-25T02:55:02;2.47;;;2.28;;
16099;SDS011;8154;50.830;12.082;2023-01-25T02:57:28;2.53;;;2.33;;
16099;SDS011;8154;50.830;12.082;2023-01-25T02:59:54;2.65;;;2.45;;
16099;SDS011;8154;50.830;12.082;2023-01-25T03:02:20;2.63;;;2.42;;
16099;SDS011;8154;50.830;12.082;2023-01-25T03:04:46;2.80;;;2.60;;
16099;SDS011;8154;50.830;12.082;2023-01-25T03:07:16;2.70;;;2.50;;
16099;SDS011;8154;50.830;12.082;2023-01-25T03:09:42;2.58;;;2.38;;
16099;SDS011;8154;50.830;12.082;2023-01-25T03:12:08;2.63;;;2.42;;
16099;SDS011;8154;50.830;12.082;2023-01-25T03:14:35;3.10;;;2.80;;
16099;SDS011;8154;50.830;12.082;2023-01-25T03:17:01;2.70;;;2.50;;
16099;SDS011;8154;50.830;12.082;2023-01-25T03:19:27;2.78;;;2.58;;
16099;SDS011;8154;50.830;12.082;2023-01-25T03:21:53;2.80;;;2.60;;
16099;SDS011;8154;50.830;12.082;2023-01-25T03:24:19;2.45;;;2.25;;
16099;SDS011;8154;50.830;12.082;2023-01-25T03:26:45;2.67;;;2.47;;
16099;SDS011;8154;50.830;12.082;2023-01-25T03:29:30;2.80;;;2.60;;
16099;SDS011;8154;50.830;12.082;2023-01-25T03:31:57;2.60;;;2.40;;
16099;SDS011;8154;50.830;12.082;2023-01-25T03:34:24;2.78;;;2.58;;
16099;SDS011;8154;50.830;12.082;2023-01-25T03:36:50;2.50;;;2.30;;
16099;SDS011;8154;50.830;12.082;2023-01-25T03:39:16;2.70;;;2.50;;
16099;SDS011;8154;50.830;12.082;2023-01-25T03:41:42;2.60;;;2.40;;
16099;SDS011;8154;50.830;12.082;2023-01-25T03:44:08;2.47;;;2.28;;
16099;SDS011;8154;50.830;12.082;2023-01-25T03:46:36;2.70;;;2.50;;
16099;SDS011;8154;50.830;12.082;2023-01-25T03:49:03;2.70;;;2.50;;
16099;SDS011;8154;50.830;12.082;2023-01-25T06:27:37;2.90;;;2.70;;
16099;SDS011;8154;50.830;12.082;2023-01-25T06:30:03;2.80;;;2.60;;
16099;SDS011;8154;50.830;12.082;2023-01-25T06:32:31;2.80;;;2.60;;
16099;SDS011;8154;50.830;12.082;2023-01-25T06:34:57;2.97;;;2.78;;
16099;SDS011;8154;50.830;12.082;2023-01-25T06:37:24;2.95;;;2.75;;
16099;SDS011;8154;50.830;12.082;2023-01-25T06:39:50;2.70;;;2.50;;
16099;SDS011;8154;50.830;12.082;2023-01-25T06:42:16;2.88;;;2.67;;
16099;SDS011;8154;50.830;12.082;2023-01-25T06:44:42;2.70;;;2.50;;
16099;SDS011;8154;50.830;12.082;2023-01-25T06:47:08;2.75;;;2.50;;
16099;SDS011;8154;50.830;12.082;2023-01-25T06:49:34;2.75;;;2.55;;
16099;SDS011;8154;50.830;12.082;2023-01-25T06:52:00;2.60;;;2.40;;
16099;SDS011;8154;50.830;12.082;2023-01-25T06:54:27;2.53;;;2.33;;
16099;SDS011;8154;50.830;12.082;2023-01-25T06:56:52;2.75;;;2.55;;
16099;SDS011;8154;50.830;12.082;2023-01-25T06:59:19;3.00;;;2.80;;
16099;SDS011;8154;50.830;12.082;2023-01-25T07:01:45;2.72;;;2.53;;
16099;SDS011;8154;50.830;12.082;2023-01-25T07:04:11;2.55;;;2.35;;
16099;SDS011;8154;50.830;12.082;2023-01-25T07:06:38;2.80;;;2.60;;
16099;SDS011;8154;50.830;12.082;2023-01-25T07:09:08;2.70;;;2.50;;
16099;SDS011;8154;50.830;12.082;2023-01-25T07:11:35;2.70;;;2.50;;
16099;SDS011;8154;50.830;12.082;2023-01-25T07:14:02;2.95;;;2.75;;
16099;SDS011;8154;50.830;12.082;2023-01-25T07:16:29;2.88;;;2.67;;
16099;SDS011;8154;50.830;12.082;2023-01-25T07:19:02;3.03;;;2.78;;
16099;SDS011;8154;50.830;12.082;2023-01-25T07:21:29;2.80;;;2.60;;
16099;SDS011;8154;50.830;12.082;2023-01-25T07:23:58;2.90;;;2.70;;
16099;SDS011;8154;50.830;12.082;2023-01-25T07:26:27;2.80;;;2.60;;
16099;SDS011;8154;50.830;12.082;2023-01-25T08:27:30;2.83;;;2.63;;
16099;SDS011;8154;50.830;12.082;2023-01-25T08:29:56;2.88;;;2.67;;
16099;SDS011;8154;50.830;12.082;2023-01-25T08:32:22;2.90;;;2.70;;
16099;SDS011;8154;50.830;12.082;2023-01-25T08:34:48;2.97;;;2.78;;
16099;SDS011;8154;50.830;12.082;2023-01-25T08:37:14;2.85;;;2.65;;
16099;SDS011;8154;50.830;12.082;2023-01-25T08:39:41;2.70;;;2.50;;
16099;SDS011;8154;50.830;12.082;2023-01-25T08:42:08;2.97;;;2.78;;
16099;SDS011;8154;50.830;12.082;2023-01-25T08:44:34;2.60;;;2.40;;
16099;SDS011;8154;50.830;12.082;2023-01-25T08:47:00;2.80;;;2.60;;
16099;SDS011;8154;50.830;12.082;2023-01-25T08:49:26;2.70;;;2.50;;
16099;SDS011;8154;50.830;12.082;2023-01-25T08:51:52;2.70;;;2.50;;
16099;SDS011;8154;50.830;12.082;2023-01-25T08:54:18;2.90;;;2.70;;
16099;SDS011;8154;50.830;12.082;2023-01-25T08:56:45;2.60;;;2.40;;
16099;SDS011;8154;50.830;12.082;2023-01-25T08:59:11;2.88;;;2.67;;
16099;SDS011;8154;50.830;12.082;2023-01-25T09:01:37;2.63;;;2.42;;
16099;SDS011;8154;50.830;12.082;2023-01-25T09:04:04;2.50;;;2.30;;
16099;SDS011;8154;50.830;12.082;2023-01-25T09:06:30;2.83;;;2.63;;
16099;SDS011;8154;50.830;12.082;2023-01-25T09:08:58;2.90;;;2.70;;
16099;SDS011;8154;50.830;12.082;2023-01-25T09:11:29;2.70;;;2.50;;
16099;SDS011;8154;50.830;12.082;2023-01-25T09:13:55;2.72;;;2.53;;
16099;SDS011;8154;50.830;12.082;2023-01-25T09:16:22;2.80;;;2.60;;
16099;SDS011;8154;50.830;12.082;2023-01-25T09:18:56;3.13;;;2.85;;
16099;SDS011;8154;50.830;12.082;2023-01-25T09:21:23;2.72;;;2.53;;
16099;SDS011;8154;50.830;12.082;2023-01-25T09:23:50;2.78;;;2.58;;
16099;SDS011;8154;50.830;12.082;2023-01-25T09:26:17;2.70;;;2.50;;
16099;SDS011;8154;50.830;12.082;2023-01-25T09:46:55;2.45;;;2.25;;
16099;SDS011;8154;50.830;12.082;2023-01-25T09:52:24;2.65;;;2.45;;
16099;SDS011;8154;50.830;12.082;2023-01-25T09:55:09;2.67;;;2.47;;
16099;SDS011;8154;50.830;12.082;2023-01-25T09:57:39;2.60;;;2.40;;
16099;SDS011;8154;50.830;12.082;2023-01-25T10:00:13;3.05;;;2.85;;
16099;SDS011;8154;50.830;12.082;2023-01-25T10:05:16;2.60;;;2.40;;
16099;SDS011;8154;50.830;12.082;2023-01-25T10:13:07;2.70;;;2.50;;
16099;SDS011;8154;50.830;12.082;2023-01-25T10:15:42;2.80;;;2.60;;
16099;SDS011;8154;50.830;12.082;2023-01-25T10:21:11;2.70;;;2.50;;
16099;SDS011;8154;50.830;12.082;2023-01-25T10:26:35;2.60;;;2.40;;
16099;SDS011;8154;50.830;12.082;2023-01-25T10:36:46;2.50;;;2.30;;
16099;SDS011;8154;50.830;12.082;2023-01-25T10:39:20;2.22;;;2.13;;
16099;SDS011;8154;50.830;12.082;2023-01-25T10:41:50;2.50;;;2.30;;
16099;SDS011;8154;50.830;12.082;2023-01-25T11:46:13;2.80;;;2.60;;
16099;SDS011;8154;50.830;12.082;2023-01-25T11:49:02;2.78;;;2.58;;
16099;SDS011;8154;50.830;12.082;2023-01-25T11:57:03;2.40;;;2.20;;
16099;SDS011;8154;50.830;12.082;2023-01-25T11:59:56;2.60;;;2.40;;
16099;SDS011;8154;50.830;12.082;2023-01-25T12:02:48;2.75;;;2.55;;
16099;SDS011;8154;50.830;12.082;2023-01-25T12:06:07;2.60;;;2.40;;
16099;SDS011;8154;50.830;12.082;2023-01-25T12:08:40;2.60;;;2.40;;
16099;SDS011;8154;50.830;12.082;2023-01-25T12:30:52;2.70;;;2.50;;
16099;SDS011;8154;50.830;12.082;2023-01-25T12:44:30;2.50;;;2.30;;
16099;SDS011;8154;50.830;12.082;2023-01-25T12:47:03;2.45;;;2.25;;
16099;SDS011;8154;50.830;12.082;2023-01-25T12:52:34;2.75;;;2.55;;
16099;SDS011;8154;50.830;12.082;2023-01-25T12:55:04;2.65;;;2.45;;
16099;SDS011;8154;50.830;12.082;2023-01-25T13:05:50;2.80;;;2.60;;
16099;SDS011;8154;50.830;12.082;2023-01-25T13:11:31;2.50;;;2.30;;
16099;SDS011;8154;50.830;12.082;2023-01-25T13:16:41;2.70;;;2.50;;
16099;SDS011;8154;50.830;12.082;2023-01-25T13:21:55;2.50;;;2.30;;
16099;SDS011;8154;50.830;12.082;2023-01-25T13:24:24;2.80;;;2.60;;
16099;SDS011;8154;50.830;12.082;2023-01-25T13:29:41;2.50;;;2.30;;
16099;SDS011;8154;50.830;12.082;2023-01-25T13:34:58;2.60;;;2.40;;
16099;SDS011;8154;50.830;12.082;2023-01-25T13:37:29;2.60;;;2.40;;
16099;SDS011;8154;50.830;12.082;2023-01-25T13:39:57;2.70;;;2.50;;
16099;SDS011;8154;50.830;12.082;2023-01-25T13:42:29;2.53;;;2.33;;
16099;SDS011;8154;50.830;12.082;2023-01-25T13:45:18;2.60;;;2.40;;
16099;SDS011;8154;50.830;12.082;2023-01-25T14:49:06;3.65;;;3.35;;
16099;SDS011;8154;50.830;12.082;2023-01-25T14:51:32;11.60;;;10.50;;
16099;SDS011;8154;50.830;12.082;2023-01-25T14:54:09;12.65;;;11.32;;
16099;SDS011;8154;50.830;12.082;2023-01-25T14:56:47;15.68;;;12.90;;
16099;SDS011;8154;50.830;12.082;2023-01-25T14:59:21;21.52;;;19.15;;
16099;SDS011;8154;50.830;12.082;2023-01-25T15:01:51;37.25;;;28.85;;
16099;SDS011;8154;50.830;12.082;2023-01-25T15:04:20;17.65;;;15.75;;
16099;SDS011;8154;50.830;12.082;2023-01-25T15:06:51;18.23;;;13.90;;
16099;SDS011;8154;50.830;12.082;2023-01-25T15:12:01;18.77;;;13.73;;
16099;SDS011;8154;50.830;12.082;2023-01-25T15:14:48;15.70;;;13.20;;
16099;SDS011;8154;50.830;12.082;2023-01-25T15:20:05;14.75;;;13.25;;
16099;SDS011;8154;50.830;12.082;2023-01-25T15:22:50;14.70;;;12.90;;
16099;SDS011;8154;50.830;12.082;2023-01-25T15:25:16;13.88;;;12.27;;
16099;SDS011;8154;50.830;12.082;2023-01-25T15:27:42;14.15;;;12.40;;
16099;SDS011;8154;50.830;12.082;2023-01-25T15:30:15;14.60;;;12.20;;
16099;SDS011;8154;50.830;12.082;2023-01-25T15:32:43;13.93;;;12.40;;
16099;SDS011;8154;50.830;12.082;2023-01-25T16:36:27;10.38;;;9.38;;
16099;SDS011;8154;50.830;12.082;2023-01-25T16:38:53;10.48;;;9.45;;
16099;SDS011;8154;50.830;12.082;2023-01-25T16:41:20;11.27;;;9.68;;
16099;SDS011;8154;50.830;12.082;2023-01-25T16:43:46;10.13;;;9.13;;
16099;SDS011;8154;50.830;12.082;2023-01-25T16:46:18;11.80;;;9.30;;
16099;SDS011;8154;50.830;12.082;2023-01-25T16:48:47;10.43;;;9.40;;
16099;SDS011;8154;50.830;12.082;2023-01-25T16:51:16;10.70;;;9.60;;
16099;SDS011;8154;50.830;12.082;2023-01-25T16:53:45;10.40;;;9.30;;
16099;SDS011;8154;50.830;12.082;2023-01-25T16:56:22;10.63;;;9.32;;
16099;SDS011;8154;50.830;12.082;2023-01-25T16:58:54;10.32;;;9.30;;
16099;SDS011;8154;50.830;12.082;2023-01-25T17:01:22;9.85;;;8.80;;
16099;SDS011;8154;50.830;12.082;2023-01-25T17:03:49;9.88;;;8.88;;
16099;SDS011;8154;50.830;12.082;2023-01-25T17:06:17;11.55;;;9.10;;
16099;SDS011;8154;50.830;12.082;2023-01-25T17:09:06;9.55;;;8.65;;
16099;SDS011;8154;50.830;12.082;2023-01-25T17:11:36;9.43;;;8.48;;
16099;SDS011;8154;50.830;12.082;2023-01-25T17:14:03;10.35;;;9.20;;
16099;SDS011;8154;50.830;12.082;2023-01-25T17:16:29;9.63;;;8.68;;
16099;SDS011;8154;50.830;12.082;2023-01-25T17:18:57;9.82;;;8.82;;
16099;SDS011;8154;50.830;12.082;2023-01-25T17:21:27;10.35;;;9.10;;
16099;SDS011;8154;50.830;12.082;2023-01-25T17:23:54;9.25;;;8.43;;
16099;SDS011;8154;50.830;12.082;2023-01-25T17:26:22;9.20;;;8.30;;
16099;SDS011;8154;50.830;12.082;2023-01-25T17:28:48;15.07;;;8.82;;
16099;SDS011;8154;50.830;12.082;2023-01-25T17:31:19;12.85;;;9.73;;
16099;SDS011;8154;50.830;12.082;2023-01-25T17:33:47;19.92;;;11.63;;
16099;SDS011;8154;50.830;12.082;2023-01-25T17:36:14;17.15;;;11.25;;
16099;SDS011;8154;50.830;12.082;2023-01-25T17:38:41;15.88;;;10.70;;
16099;SDS011;8154;50.830;12.082;2023-01-25T17:41:08;15.90;;;10.70;;
16099;SDS011;8154;50.830;12.082;2023-01-25T17:43:36;15.23;;;10.50;;
16099;SDS011;8154;50.830;12.082;2023-01-25T17:46:12;14.48;;;10.23;;
16099;SDS011;8154;50.830;12.082;2023-01-25T17:48:45;14.10;;;10.30;;
16099;SDS011;8154;50.830;12.082;2023-01-25T17:51:12;14.02;;;9.75;;
16099;SDS011;8154;50.830;12.082;2023-01-25T17:53:40;13.65;;;10.10;;
16099;SDS011;8154;50.830;12.082;2023-01-25T17:56:07;13.55;;;9.85;;
16099;SDS011;8154;50.830;12.082;2023-01-25T17:58:35;14.68;;;10.30;;
16099;SDS011;8154;50.830;12.082;2023-01-25T18:01:09;16.35;;;11.27;;
16099;SDS011;8154;50.830;12.082;2023-01-25T18:03:36;21.48;;;12.02;;
16099;SDS011;8154;50.830;12.082;2023-01-25T18:06:02;156.02;;;19.42;;
16099;SDS011;8154;50.830;12.082;2023-01-25T18:08:40;18.50;;;11.23;;
16099;SDS011;8154;50.830;12.082;2023-01-25T18:11:10;22.23;;;12.05;;
16099;SDS011;8154;50.830;12.082;2023-01-25T18:13:40;25.83;;;12.07;;
16099;SDS011;8154;50.830;12.082;2023-01-25T18:16:08;17.45;;;11.25;;
16099;SDS011;8154;50.830;12.082;2023-01-25T18:18:55;19.17;;;11.32;;
16099;SDS011;8154;50.830;12.082;2023-01-25T18:21:24;18.65;;;11.20;;
16099;SDS011;8154;50.830;12.082;2023-01-25T18:23:53;18.38;;;11.20;;
16099;SDS011;8154;50.830;12.082;2023-01-25T18:26:38;20.17;;;11.18;;
16099;SDS011;8154;50.830;12.082;2023-01-25T18:31:34;15.57;;;10.38;;
16099;SDS011;8154;50.830;12.082;2023-01-25T18:34:01;17.67;;;10.57;;
16099;SDS011;8154;50.830;12.082;2023-01-25T20:39:25;10.60;;;6.88;;
16099;SDS011;8154;50.830;12.082;2023-01-25T20:41:50;9.85;;;7.28;;
16099;SDS011;8154;50.830;12.082;2023-01-25T20:44:17;9.70;;;6.63;;
16099;SDS011;8154;50.830;12.082;2023-01-25T20:46:44;11.05;;;7.00;;
16099;SDS011;8154;50.830;12.082;2023-01-25T20:49:14;10.48;;;6.45;;
16099;SDS011;8154;50.830;12.082;2023-01-25T20:51:42;9.15;;;6.90;;
16099;SDS011;8154;50.830;12.082;2023-01-25T20:54:09;12.07;;;6.70;;
16099;SDS011;8154;50.830;12.082;2023-01-25T20:56:36;9.82;;;6.93;;
16099;SDS011;8154;50.830;12.082;2023-01-25T20:59:02;8.52;;;6.35;;
16099;SDS011;8154;50.830;12.082;2023-01-25T21:01:29;9.80;;;6.38;;
16099;SDS011;8154;50.830;12.082;2023-01-25T21:04:01;8.30;;;6.30;;
16099;SDS011;8154;50.830;12.082;2023-01-25T21:06:28;7.72;;;6.10;;
16099;SDS011;8154;50.830;12.082;2023-01-25T21:08:55;7.22;;;6.07;;
16099;SDS011;8154;50.830;12.082;2023-01-25T21:11:23;9.48;;;6.22;;
16099;SDS011;8154;50.830;12.082;2023-01-25T21:13:50;7.75;;;6.38;;
16099;SDS011;8154;50.830;12.082;2023-01-25T21:16:19;7.50;;;5.95;;
16099;SDS011;8154;50.830;12.082;2023-01-25T21:18:47;7.68;;;6.28;;
16099;SDS011;8154;50.830;12.082;2023-01-25T21:21:18;7.88;;;6.10;;
16099;SDS011;8154;50.830;12.082;2023-01-25T21:23:48;8.10;;;6.10;;
16099;SDS011;8154;50.830;12.082;2023-01-25T21:26:22;7.40;;;6.10;;
16099;SDS011;8154;50.830;12.082;2023-01-25T21:28:50;10.40;;;5.90;;
16099;SDS011;8154;50.830;12.082;2023-01-25T21:31:22;8.40;;;5.68;;
16099;SDS011;8154;50.830;12.082;2023-01-25T21:33:50;7.80;;;5.70;;
16099;SDS011;8154;50.830;12.082;2023-01-25T21:36:17;7.78;;;5.70;;
16099;SDS011;8154;50.830;12.082;2023-01-25T22:40:31;6.05;;;5.00;;
16099;SDS011;8154;50.830;12.082;2023-01-25T22:42:57;5.45;;;4.70;;
16099;SDS011;8154;50.830;12.082;2023-01-25T22:45:22;5.05;;;4.55;;
16099;SDS011;8154;50.830;12.082;2023-01-25T22:47:48;5.22;;;4.60;;
16099;SDS011;8154;50.830;12.082;2023-01-25T22:50:14;5.88;;;4.28;;
16099;SDS011;8154;50.830;12.082;2023-01-25T22:52:40;5.10;;;4.60;;
16099;SDS011;8154;50.830;12.082;2023-01-25T22:55:06;5.53;;;4.57;;
16099;SDS011;8154;50.830;12.082;2023-01-25T22:57:33;4.93;;;4.43;;
16099;SDS011;8154;50.830;12.082;2023-01-25T22:59:59;4.40;;;4.00;;
16099;SDS011;8154;50.830;12.082;2023-01-25T23:02:25;4.75;;;4.07;;
16099;SDS011;8154;50.830;12.082;2023-01-25T23:04:51;4.82;;;4.30;;
16099;SDS011;8154;50.830;12.082;2023-01-25T23:07:17;5.05;;;4.40;;
16099;SDS011;8154;50.830;12.082;2023-01-25T23:09:44;4.70;;;4.20;;
16099;SDS011;8154;50.830;12.082;2023-01-25T23:12:13;4.90;;;4.40;;
16099;SDS011;8154;50.830;12.082;2023-01-25T23:14:39;4.60;;;4.20;;
16099;SDS011;8154;50.830;12.082;2023-01-25T23:17:12;4.70;;;4.20;;
16099;SDS011;8154;50.830;12.082;2023-01-25T23:19:56;4.50;;;3.97;;
16099;SDS011;8154;50.830;12.082;2023-01-25T23:22:22;5.45;;;4.22;;
16099;SDS011;8154;50.830;12.082;2023-01-25T23:24:48;4.25;;;3.85;;
16099;SDS011;8154;50.830;12.082;2023-01-25T23:27:14;4.43;;;4.03;;
16099;SDS011;8154;50.830;12.082;2023-01-25T23:29:40;4.55;;;4.05;;
16099;SDS011;8154;50.830;12.082;2023-01-25T23:32:06;4.20;;;3.80;;
16099;SDS011;8154;50.830;12.082;2023-01-25T23:34:32;4.60;;;4.20;;
16099;SDS011;8154;50.830;12.082;2023-01-25T23:37:02;4.30;;;3.90;;
16099;SDS011;8154;50.830;12.082;2023-01-25T23:39:28;4.13;;;3.72;;
16099;SDS011;8154;50.830;12.082;2023-01-25T23:41:54;4.20;;;3.80;;
16099;SDS011;8154;50.830;12.082;2023-01-25T23:44:20;4.20;;;3.80;;
16099;SDS011;8154;50.830;12.082;2023-01-25T23:46:46;4.28;;;3.83;;
16099;SDS011;8154;50.830;12.082;2023-01-25T23:49:13;4.20;;;3.60;;
16099;SDS011;8154;50.830;12.082;2023-01-25T23:51:38;3.92;;;3.60;;
16099;SDS011;8154;50.830;12.082;2023-01-25T23:54:04;4.10;;;3.70;;
16099;SDS011;8154;50.830;12.082;2023-01-25T23:56:30;4.20;;;3.80;;
16099;SDS011;8154;50.830;12.082;2023-01-25T23:58:57;4.13;;;3.72;;
